Time;durP1;ratioP1;P1;durP2;ratioP2;P2;SDS_P1;SDS_P2;PMS_P1;PMS_P2;Temp;Humidity;BMP_temperature;BMP_pressure;BME280_temperature;BME280_humidity;BME280_pressure;Samples;Min_cycle;Max_cycle;Signal;HPM_P1;HPM_P2
2023/12/05 00:00:53;;;;;;;;;0.00;0.00;;;;;10.03;72.47;99449.84;5096235;27;45456;-80
2023/12/05 00:03:18;;;;;;;;;0.00;0.00;;;;;10.42;72.42;99496.88;5077424;27;45365;-79
2023/12/05 00:05:44;;;;;;;;;1.00;0.00;;;;;10.51;71.85;99517.06;5095109;27;46104;-80
2023/12/05 00:08:09;;;;;;;;;1.00;1.00;;;;;10.44;71.90;99497.50;5095817;27;45313;-79
2023/12/05 00:10:35;;;;;;;;;1.00;1.00;;;;;10.45;72.06;99509.78;5096062;27;45608;-79
2023/12/05 00:13:00;;;;;;;;;1.00;0.00;;;;;10.51;72.05;99529.53;5095781;27;45568;-78
2023/12/05 00:15:26;;;;;;;;;0.00;0.00;;;;;10.49;72.15;99519.06;5095652;27;46105;-80
2023/12/05 00:17:52;;;;;;;;;0.00;0.00;;;;;10.54;72.28;99531.84;5095398;27;45511;-78
2023/12/05 00:20:17;;;;;;;;;0.00;0.00;;;;;10.43;71.88;99517.13;5097326;27;45525;-79
2023/12/05 00:22:43;;;;;;;;;1.00;0.67;;;;;10.38;72.07;99510.66;5099046;27;45299;-79
2023/12/05 00:25:08;;;;;;;;;0.00;0.00;;;;;10.53;71.72;99528.34;5098492;27;45572;-79
2023/12/05 00:27:34;;;;;;;;;0.00;0.00;;;;;10.56;71.66;99513.88;5098237;27;45395;-80
2023/12/05 00:29:59;;;;;;;;;1.00;1.00;;;;;10.52;71.10;99526.69;5099016;27;45337;-78
2023/12/05 00:32:24;;;;;;;;;2.00;1.00;;;;;10.50;71.00;99520.72;5098781;27;45346;-79
2023/12/05 00:34:50;;;;;;;;;2.00;0.00;;;;;10.10;70.96;99454.47;5099097;27;45340;-81
2023/12/05 00:37:15;;;;;;;;;0.00;0.00;;;;;10.46;70.76;99511.44;5098910;27;45499;-81
2023/12/05 00:39:41;;;;;;;;;0.00;0.00;;;;;10.43;71.36;99522.44;5099526;27;45315;-78
2023/12/05 00:42:07;;;;;;;;;0.00;0.00;;;;;10.46;71.56;99530.06;5098426;27;45390;-79
2023/12/05 00:44:33;;;;;;;;;0.00;0.00;;;;;10.11;70.58;99461.44;5099340;27;45650;-79
2023/12/05 00:47:00;;;;;;;;;1.00;0.00;;;;;10.42;70.39;99533.22;5099224;27;45517;-79
2023/12/05 00:49:25;;;;;;;;;0.00;0.00;;;;;10.01;70.55;99465.13;5099156;27;45494;-80
2023/12/05 00:51:51;;;;;;;;;0.00;0.00;;;;;10.29;70.63;99510.69;5098647;27;45382;-80
2023/12/05 00:54:16;;;;;;;;;0.67;0.00;;;;;10.05;70.46;99479.72;5098287;27;45984;-79
2023/12/05 00:56:41;;;;;;;;;1.33;0.33;;;;;10.34;70.90;99534.06;5098692;27;45595;-80
2023/12/05 00:59:06;;;;;;;;;0.33;0.33;;;;;10.19;70.75;99514.50;5099602;27;46720;-77
2023/12/05 01:01:32;;;;;;;;;0.00;0.00;;;;;9.94;70.17;99472.09;5084713;27;45345;-77
2023/12/05 01:03:58;;;;;;;;;1.67;1.00;;;;;10.22;70.26;99527.50;5103627;27;47096;-79
2023/12/05 01:06:23;;;;;;;;;1.00;1.00;;;;;10.31;70.49;99526.44;5101764;27;45345;-78
2023/12/05 01:08:49;;;;;;;;;0.00;0.00;;;;;10.15;70.64;99511.38;5084906;27;45312;-79
2023/12/05 01:11:15;;;;;;;;;0.00;0.00;;;;;10.33;70.27;99540.38;5103234;27;45240;-75
2023/12/05 01:13:40;;;;;;;;;1.00;0.00;;;;;9.81;70.00;99450.59;5105618;27;45267;-79
2023/12/05 01:16:06;;;;;;;;;0.67;0.67;;;;;10.12;70.11;99505.56;5106484;27;45346;-79
2023/12/05 01:18:31;;;;;;;;;0.00;0.00;;;;;10.22;70.34;99530.16;5098152;27;45455;-79
2023/12/05 01:20:57;;;;;;;;;0.00;0.00;;;;;10.34;70.21;99550.00;5098538;27;45412;-79
2023/12/05 01:23:23;;;;;;;;;0.00;0.00;;;;;10.33;69.85;99551.84;5099284;27;45445;-78
2023/12/05 01:25:48;;;;;;;;;0.00;0.00;;;;;10.19;69.89;99533.09;5099344;27;45295;-82
2023/12/05 01:28:13;;;;;;;;;0.00;0.00;;;;;10.36;69.78;99542.69;5081272;27;45372;-79
2023/12/05 01:30:39;;;;;;;;;2.00;0.00;;;;;10.11;69.19;99520.69;5099734;27;45471;-81
2023/12/05 01:33:05;;;;;;;;;0.00;0.00;;;;;10.34;69.46;99558.81;5098854;27;46063;-79
2023/12/05 01:35:30;;;;;;;;;0.00;0.00;;;;;10.33;69.10;99559.00;5097680;27;45464;-80
2023/12/05 01:37:55;;;;;;;;;0.00;0.00;;;;;10.18;69.53;99534.91;5097319;27;45296;-79
2023/12/05 01:40:21;;;;;;;;;0.00;0.00;;;;;10.04;69.02;99507.25;5097629;27;45313;-78
2023/12/05 01:42:46;;;;;;;;;0.00;0.00;;;;;10.32;69.12;99562.66;5096866;27;46081;-79
2023/12/05 01:45:12;;;;;;;;;0.33;0.33;;;;;9.69;68.33;99458.09;5097801;27;45391;-80
2023/12/05 01:47:39;;;;;;;;;1.00;0.00;;;;;10.28;68.73;99572.78;5097586;27;45366;-77
2023/12/05 01:50:26;;;;;;;;;0.00;0.00;;;;;10.32;68.72;99565.31;5097352;27;45304;-79
2023/12/05 01:52:54;;;;;;;;;0.00;0.00;;;;;10.33;68.61;99573.09;5078446;27;45562;-80
2023/12/05 01:55:21;;;;;;;;;0.00;0.00;;;;;10.27;67.28;99571.13;5097306;27;45523;-79
2023/12/05 01:57:48;;;;;;;;;0.00;0.00;;;;;10.14;68.48;99567.31;5097808;27;45688;-79
2023/12/05 02:00:15;;;;;;;;;1.00;0.00;;;;;10.27;68.51;99567.66;5097437;27;45468;-80
2023/12/05 02:02:41;;;;;;;;;1.00;1.00;;;;;10.22;68.06;99568.16;5096862;27;45371;-80
2023/12/05 02:05:07;;;;;;;;;0.33;0.33;;;;;10.31;68.23;99583.06;5097013;27;45477;-80
2023/12/05 02:07:34;;;;;;;;;0.00;0.00;;;;;10.19;67.61;99557.81;5096571;27;45357;-79
2023/12/05 02:09:59;;;;;;;;;0.00;0.00;;;;;9.97;67.22;99540.78;5097260;27;45390;-78
2023/12/05 02:12:25;;;;;;;;;1.00;0.00;;;;;10.25;67.08;99577.63;5099762;27;46028;-81
2023/12/05 02:14:50;;;;;;;;;0.00;0.00;;;;;10.17;67.07;99557.16;5103851;27;45488;-80
2023/12/05 02:17:36;;;;;;;;;0.00;0.00;;;;;10.38;67.41;99580.53;5098303;27;45287;-79
2023/12/05 02:20:12;;;;;;;;;1.00;0.00;;;;;10.21;66.91;99560.34;5098337;27;45777;-78
2023/12/05 02:23:02;;;;;;;;;1.00;0.00;;;;;10.33;67.67;99586.38;5097334;27;45520;-80
2023/12/05 02:25:49;;;;;;;;;0.00;0.00;;;;;10.33;67.65;99588.22;5096856;27;45410;-78
2023/12/05 02:28:15;;;;;;;;;0.33;0.33;;;;;10.33;68.02;99585.56;5096573;27;45507;-78
2023/12/05 02:30:41;;;;;;;;;1.33;0.00;;;;;10.28;68.01;99585.25;5097002;27;45489;-77
2023/12/05 02:33:06;;;;;;;;;0.00;0.00;;;;;10.22;68.82;99578.78;5104416;27;46228;-76
2023/12/05 02:35:32;;;;;;;;;0.00;0.00;;;;;10.19;68.75;99571.09;5104351;27;48796;-77
2023/12/05 02:38:11;;;;;;;;;1.00;0.00;;;;;10.32;68.63;99587.38;5098613;27;45460;-77
2023/12/05 02:40:50;;;;;;;;;0.33;0.00;;;;;10.36;69.14;99598.50;5097444;27;45345;-76
2023/12/05 02:43:24;;;;;;;;;0.00;0.00;;;;;10.31;69.29;99600.84;5094829;27;46216;-77
2023/12/05 02:45:52;;;;;;;;;0.00;0.00;;;;;10.23;69.40;99606.19;5096716;27;45598;-78
2023/12/05 02:48:19;;;;;;;;;1.00;0.00;;;;;10.13;70.12;99597.53;5096120;27;45547;-78
2023/12/05 02:50:45;;;;;;;;;0.00;0.00;;;;;10.21;70.10;99619.63;5078159;27;45813;-78
2023/12/05 02:53:11;;;;;;;;;0.00;0.00;;;;;10.25;69.35;99622.78;5095777;27;46220;-77
2023/12/05 02:55:38;;;;;;;;;0.00;0.00;;;;;10.25;69.58;99636.06;5077561;27;45355;-79
2023/12/05 02:58:03;;;;;;;;;0.00;0.00;;;;;10.26;70.14;99635.88;5096049;27;45299;-80
2023/12/05 03:00:28;;;;;;;;;0.00;0.00;;;;;10.13;69.60;99613.47;5097601;27;45501;-78
2023/12/05 03:02:54;;;;;;;;;0.00;0.00;;;;;10.22;69.82;99641.72;5078934;27;47368;-78
2023/12/05 03:05:19;;;;;;;;;0.00;0.00;;;;;10.20;69.72;99635.69;5097264;27;45421;-77
2023/12/05 03:07:44;;;;;;;;;0.00;0.00;;;;;9.84;69.84;99588.28;5096386;27;45503;-79
2023/12/05 03:10:10;;;;;;;;;0.00;0.00;;;;;10.16;69.47;99645.00;5096710;27;45616;-79
2023/12/05 03:12:35;;;;;;;;;0.00;0.00;;;;;10.07;70.24;99623.75;5077067;27;46114;-78
2023/12/05 03:15:00;;;;;;;;;0.00;0.00;;;;;9.30;70.26;99503.06;5095461;27;45495;-79
2023/12/05 03:17:26;;;;;;;;;1.00;0.00;;;;;10.03;69.35;99643.69;5095621;27;45472;-79
2023/12/05 03:19:51;;;;;;;;;0.00;0.00;;;;;9.89;69.47;99636.38;5095644;27;45595;-76
2023/12/05 03:22:17;;;;;;;;;0.00;0.00;;;;;10.02;69.93;99660.63;5095854;27;46353;-76
2023/12/05 03:24:42;;;;;;;;;0.00;0.00;;;;;10.01;69.82;99653.66;5076670;27;45577;-78
2023/12/05 03:27:07;;;;;;;;;0.00;0.00;;;;;9.77;70.18;99613.81;5097944;27;45319;-78
2023/12/05 03:29:33;;;;;;;;;0.00;0.00;;;;;9.94;68.90;99671.22;5102319;27;45453;-80
2023/12/05 03:31:59;;;;;;;;;0.00;0.00;;;;;9.63;70.13;99607.38;5097908;27;46114;-77
2023/12/05 03:34:24;;;;;;;;;0.00;0.00;;;;;9.46;70.26;99592.44;5095128;27;45383;-78
2023/12/05 03:36:49;;;;;;;;;0.00;0.00;;;;;9.85;70.54;99643.03;5095689;27;45393;-77
2023/12/05 03:39:15;;;;;;;;;0.00;0.00;;;;;9.58;69.34;99612.31;5095011;27;45687;-77
2023/12/05 03:41:43;;;;;;;;;0.00;0.00;;;;;9.39;69.65;99589.59;5095066;27;45438;-80
2023/12/05 03:44:08;;;;;;;;;0.00;0.00;;;;;9.76;69.25;99654.63;5094770;27;45580;-79
2023/12/05 03:46:33;;;;;;;;;0.00;0.00;;;;;9.77;69.53;99664.25;5095200;27;45489;-79
2023/12/05 03:48:59;;;;;;;;;0.00;0.00;;;;;9.73;69.31;99639.88;5077201;27;45313;-78
2023/12/05 03:51:24;;;;;;;;;0.00;0.00;;;;;9.67;69.45;99655.63;5095286;27;46507;-78
2023/12/05 03:53:50;;;;;;;;;0.00;0.00;;;;;9.60;69.33;99636.03;5096792;27;45469;-78
2023/12/05 03:56:15;;;;;;;;;0.00;0.00;;;;;9.60;69.69;99638.69;5078547;27;45519;-78
2023/12/05 03:58:41;;;;;;;;;0.00;0.00;;;;;9.55;69.58;99648.97;5097150;27;45587;-78
2023/12/05 04:01:07;;;;;;;;;0.00;0.00;;;;;9.50;70.31;99648.63;5096675;27;45842;-78
2023/12/05 04:03:32;;;;;;;;;0.00;0.00;;;;;9.30;70.70;99622.41;5097030;27;45479;-78
2023/12/05 04:05:57;;;;;;;;;9.67;8.67;;;;;9.38;70.95;99650.75;5099849;27;45511;-77
2023/12/05 04:08:23;;;;;;;;;0.00;0.00;;;;;9.48;70.57;99667.38;5097447;27;45572;-79
2023/12/05 04:10:48;;;;;;;;;0.00;0.00;;;;;9.51;70.72;99684.78;5094566;27;48593;-78
2023/12/05 04:13:13;;;;;;;;;0.00;0.00;;;;;9.47;70.87;99676.34;5094254;27;45525;-78
2023/12/05 04:15:39;;;;;;;;;0.00;0.00;;;;;9.49;70.88;99671.69;5094990;27;45362;-78
2023/12/05 04:18:04;;;;;;;;;0.00;0.00;;;;;9.57;71.36;99676.16;5094984;27;45315;-78
2023/12/05 04:20:29;;;;;;;;;0.00;0.00;;;;;9.67;71.31;99701.56;5094626;27;46115;-78
2023/12/05 04:22:55;;;;;;;;;0.00;0.00;;;;;9.57;70.64;99677.00;5095192;27;45667;-76
2023/12/05 04:25:20;;;;;;;;;0.00;0.00;;;;;9.64;71.07;99706.38;5094106;27;45267;-77
2023/12/05 04:27:45;;;;;;;;;0.00;0.00;;;;;9.66;71.46;99704.41;5094395;27;45281;-76
2023/12/05 04:30:11;;;;;;;;;0.00;0.00;;;;;9.69;71.37;99701.41;5075705;27;46295;-79
2023/12/05 04:32:36;;;;;;;;;0.00;0.00;;;;;9.22;71.09;99619.75;5094727;27;45445;-75
2023/12/05 04:35:02;;;;;;;;;0.00;0.00;;;;;9.75;71.62;99711.38;5095050;27;44968;-77
2023/12/05 04:37:27;;;;;;;;;0.00;0.00;;;;;9.60;71.65;99692.59;5094935;27;45377;-78
2023/12/05 04:39:52;;;;;;;;;0.00;0.00;;;;;9.72;71.89;99717.00;5093912;27;53775;-77
2023/12/05 04:42:19;;;;;;;;;0.00;0.00;;;;;9.69;72.10;99701.41;5094513;27;45652;-79
2023/12/05 04:44:45;;;;;;;;;0.67;0.00;;;;;9.37;72.41;99652.59;5094456;27;45361;-77
2023/12/05 04:47:10;;;;;;;;;0.00;0.00;;;;;9.66;72.49;99722.97;5094602;27;45393;-77
2023/12/05 04:49:35;;;;;;;;;0.00;0.00;;;;;9.53;72.33;99698.72;5094230;27;46128;-76
2023/12/05 04:52:01;;;;;;;;;0.00;0.00;;;;;9.62;72.73;99721.66;5094209;27;45730;-78
2023/12/05 04:54:26;;;;;;;;;0.00;0.00;;;;;9.47;72.49;99691.44;5094493;27;45278;-75
2023/12/05 04:56:51;;;;;;;;;0.00;0.00;;;;;9.62;72.80;99724.28;5095234;27;45334;-77
2023/12/05 04:59:16;;;;;;;;;0.00;0.00;;;;;9.64;73.26;99731.09;5094937;27;46238;-75
2023/12/05 05:01:42;;;;;;;;;0.00;0.00;;;;;9.44;72.62;99705.84;5098980;27;45605;-78
2023/12/05 05:04:07;;;;;;;;;3.33;3.33;;;;;9.71;73.04;99747.19;5093648;27;45460;-77
2023/12/05 05:06:32;;;;;;;;;0.00;0.00;;;;;9.71;72.50;99753.34;5095680;27;45722;-78
2023/12/05 05:08:58;;;;;;;;;0.00;0.00;;;;;9.74;72.35;99741.56;5097614;27;46298;-77
2023/12/05 05:11:23;;;;;;;;;0.00;0.00;;;;;9.74;72.75;99760.97;5097208;27;50383;-79
2023/12/05 05:13:49;;;;;;;;;0.00;0.00;;;;;9.71;72.79;99744.53;5079992;27;45383;-77
2023/12/05 05:16:14;;;;;;;;;0.00;0.00;;;;;9.53;72.71;99714.63;5098751;27;45269;-79
2023/12/05 05:18:39;;;;;;;;;0.00;0.00;;;;;9.80;72.67;99766.59;5097372;27;46763;-79
2023/12/05 05:21:05;;;;;;;;;0.67;0.00;;;;;9.73;72.11;99758.47;5097198;27;45384;-78
2023/12/05 05:23:31;;;;;;;;;0.00;0.00;;;;;9.82;72.83;99756.69;5097153;27;45309;-78
2023/12/05 05:25:56;;;;;;;;;0.00;0.00;;;;;9.84;72.43;99776.75;5097616;27;45411;-78
2023/12/05 05:28:22;;;;;;;;;1.67;1.00;;;;;9.58;72.55;99747.66;5097606;27;45771;-78
2023/12/05 05:30:48;;;;;;;;;0.33;0.33;;;;;9.82;72.85;99776.09;5097028;27;45504;-75
2023/12/05 05:33:13;;;;;;;;;0.75;0.75;;;;;9.60;72.66;99750.97;5097281;27;45401;-78
2023/12/05 05:35:39;;;;;;;;;0.67;0.67;;;;;9.78;72.99;99790.66;5078096;27;45561;-78
2023/12/05 05:38:04;;;;;;;;;0.00;0.00;;;;;9.77;72.44;99786.34;5099044;27;48698;-78
2023/12/05 05:40:29;;;;;;;;;0.00;0.00;;;;;9.85;72.22;99797.00;5114385;27;44916;-78
2023/12/05 05:42:54;;;;;;;;;1.00;0.00;;;;;9.83;72.80;99799.00;5114247;27;45558;-80
2023/12/05 05:45:20;;;;;;;;;0.00;0.00;;;;;9.85;72.62;99797.00;5111979;27;45556;-80
2023/12/05 05:47:45;;;;;;;;;0.00;0.00;;;;;9.72;72.71;99781.53;5103625;27;46274;-79
2023/12/05 05:50:11;;;;;;;;;0.00;0.00;;;;;9.91;72.49;99816.75;5098218;27;45443;-80
2023/12/05 05:52:37;;;;;;;;;0.00;0.00;;;;;9.57;71.96;99748.66;5097311;27;45361;-80
2023/12/05 05:55:03;;;;;;;;;0.00;0.00;;;;;9.72;72.14;99789.50;5097010;27;45351;-78
2023/12/05 05:57:28;;;;;;;;;0.00;0.00;;;;;9.85;71.91;99797.00;5096989;27;46276;-78
2023/12/05 05:59:54;;;;;;;;;0.00;0.00;;;;;9.94;72.13;99813.78;5097193;27;45386;-81
2023/12/05 06:02:19;;;;;;;;;0.00;0.00;;;;;9.81;72.12;99814.25;5097211;27;45369;-79
2023/12/05 06:04:44;;;;;;;;;0.00;0.00;;;;;9.86;72.35;99829.69;5096685;27;45271;-80
2023/12/05 06:07:09;;;;;;;;;1.00;0.00;;;;;9.88;72.57;99833.84;5097171;27;51886;-78
2023/12/05 06:09:35;;;;;;;;;1.00;0.00;;;;;9.90;72.50;99846.94;5096885;27;45334;-79
2023/12/05 06:12:02;;;;;;;;;0.33;0.00;;;;;9.83;72.02;99830.84;5097155;27;45426;-79
2023/12/05 06:14:28;;;;;;;;;0.00;0.00;;;;;9.95;72.01;99842.81;5097753;27;45976;-77
2023/12/05 06:16:53;;;;;;;;;1.00;0.00;;;;;9.78;71.91;99838.44;5097306;27;46541;-81
2023/12/05 06:19:19;;;;;;;;;0.00;0.00;;;;;9.79;72.28;99845.41;5097285;27;45453;-78
2023/12/05 06:21:44;;;;;;;;;1.00;0.00;;;;;9.85;72.45;99858.06;5097061;27;45423;-79
2023/12/05 06:24:10;;;;;;;;;1.00;1.00;;;;;9.81;72.16;99850.56;5097260;27;45378;-79
2023/12/05 06:26:36;;;;;;;;;2.00;1.00;;;;;9.91;72.38;99860.06;5096191;27;45355;-78
2023/12/05 06:29:04;;;;;;;;;0.00;0.00;;;;;9.93;71.84;99868.69;5099418;27;45599;-79
2023/12/05 06:31:30;;;;;;;;;0.00;0.00;;;;;9.88;71.57;99871.00;5101626;27;45370;-80
2023/12/05 06:33:55;;;;;;;;;0.67;0.67;;;;;9.89;72.07;99880.63;5109594;27;45303;-78
2023/12/05 06:36:20;;;;;;;;;0.67;0.67;;;;;9.77;71.78;99860.66;5104046;27;45380;-79
2023/12/05 06:38:46;;;;;;;;;1.00;0.00;;;;;9.77;71.34;99853.53;5097209;27;45372;-77
2023/12/05 06:41:11;;;;;;;;;0.00;0.00;;;;;9.95;71.70;99885.28;5097613;27;45269;-80
2023/12/05 06:43:37;;;;;;;;;2.00;0.00;;;;;9.94;71.25;99886.28;5098882;27;45575;-82
2023/12/05 06:46:02;;;;;;;;;0.00;0.00;;;;;9.98;71.50;99898.25;5103483;27;45433;-80
2023/12/05 06:48:28;;;;;;;;;0.00;0.00;;;;;9.99;71.32;99909.69;5086445;27;45580;-78
2023/12/05 06:50:53;;;;;;;;;1.00;0.00;;;;;9.89;71.05;99891.25;5085281;27;45299;-80
2023/12/05 06:53:18;;;;;;;;;0.00;0.00;;;;;9.90;71.19;99892.09;5081554;27;45583;-79
2023/12/05 06:55:46;;;;;;;;;1.33;0.33;;;;;9.86;70.77;99880.97;5095622;27;45562;-81
2023/12/05 06:58:12;;;;;;;;;1.33;0.00;;;;;9.99;70.83;99909.69;5095203;27;46807;-80
2023/12/05 07:00:37;;;;;;;;;0.33;0.33;;;;;10.02;70.88;99926.16;5099956;27;45389;-82
2023/12/05 07:03:03;;;;;;;;;0.00;0.00;;;;;9.57;70.90;99853.94;5086950;27;45332;-80
2023/12/05 07:05:28;;;;;;;;;1.33;0.33;;;;;10.00;70.97;99930.78;5104975;27;45452;-78
2023/12/05 07:07:53;;;;;;;;;0.00;0.00;;;;;9.83;70.98;99922.94;5101608;27;45193;-80
2023/12/05 07:10:19;;;;;;;;;0.00;0.00;;;;;9.96;70.79;99942.72;5106309;27;45298;-80
2023/12/05 07:12:44;;;;;;;;;1.00;1.00;;;;;9.92;71.08;99941.38;5097307;27;45187;-80
2023/12/05 07:15:10;;;;;;;;;1.00;1.00;;;;;9.96;71.13;99950.69;5089212;27;46916;-81
2023/12/05 07:17:36;;;;;;;;;0.33;0.33;;;;;8.66;71.20;99744.94;5096051;27;45945;-81
2023/12/05 07:20:02;;;;;;;;;1.00;1.00;;;;;9.97;70.67;99944.38;5081595;27;45547;-78
2023/12/05 07:22:28;;;;;;;;;0.67;0.67;;;;;9.91;71.41;99949.50;5084847;27;45579;-83
2023/12/05 07:24:53;;;;;;;;;0.00;0.00;;;;;9.40;71.21;99874.25;5088145;27;46239;-78
2023/12/05 07:27:18;;;;;;;;;0.00;0.00;;;;;9.92;71.09;99965.28;5106808;27;45379;-81
2023/12/05 07:29:44;;;;;;;;;0.00;0.00;;;;;9.92;71.44;99975.91;5100803;27;45467;-80
2023/12/05 07:32:09;;;;;;;;;0.00;0.00;;;;;9.83;71.57;99968.91;5083853;27;45506;-81
2023/12/05 07:34:34;;;;;;;;;3.00;2.00;;;;;9.88;71.59;99977.22;5097723;27;45499;-79
2023/12/05 07:37:00;;;;;;;;;0.00;0.00;;;;;9.55;71.23;99931.06;5098419;27;45422;-81
2023/12/05 07:39:26;;;;;;;;;0.33;0.33;;;;;9.09;71.10;99852.72;5097715;27;45438;-79
2023/12/05 07:41:51;;;;;;;;;2.00;0.00;;;;;9.90;71.34;99991.16;5098599;27;45499;-82
2023/12/05 07:44:17;;;;;;;;;2.00;1.00;;;;;9.53;71.33;99918.94;5098217;27;45697;-78
2023/12/05 07:46:46;;;;;;;;;1.00;0.67;;;;;9.49;71.52;99915.78;5097663;27;45429;-79
2023/12/05 07:49:11;;;;;;;;;1.00;1.00;;;;;9.84;71.06;99986.50;5086425;27;45342;-80
2023/12/05 07:51:37;;;;;;;;;0.00;0.00;;;;;9.89;71.12;99986.84;5076803;28;45561;-80
2023/12/05 07:54:05;;;;;;;;;0.00;0.00;;;;;9.90;70.92;100004.44;5077698;27;45389;-78
2023/12/05 07:56:31;;;;;;;;;0.00;0.00;;;;;9.98;70.74;100014.25;5095706;27;45481;-83
2023/12/05 07:58:56;;;;;;;;;0.33;0.33;;;;;9.96;71.52;100021.53;5098041;27;45474;-82
2023/12/05 08:01:21;;;;;;;;;1.00;1.00;;;;;9.95;71.18;100015.41;5098972;27;45188;-81
2023/12/05 08:03:47;;;;;;;;;0.67;0.67;;;;;9.05;70.68;99880.53;5096480;27;45440;-80
2023/12/05 08:06:12;;;;;;;;;2.67;1.67;;;;;9.76;71.22;100005.00;5094882;27;45418;-84
2023/12/05 08:08:37;;;;;;;;;2.00;1.00;;;;;9.74;71.00;99988.41;5082129;28;45190;-78
2023/12/05 08:11:05;;;;;;;;;1.00;1.00;;;;;9.86;70.87;100011.06;5094106;27;45521;-86
2023/12/05 08:13:31;;;;;;;;;2.33;1.33;;;;;9.62;70.76;99974.59;5091930;27;46318;-80
2023/12/05 08:15:56;;;;;;;;;0.33;0.33;;;;;9.66;70.79;99978.59;5095612;27;44911;-81
2023/12/05 08:18:22;;;;;;;;;0.00;0.00;;;;;9.57;70.84;99968.06;5098448;27;45967;-79
2023/12/05 08:20:47;;;;;;;;;1.00;1.00;;;;;9.99;70.63;100027.38;5093058;27;45451;-78
2023/12/05 08:23:13;;;;;;;;;0.00;0.00;;;;;10.04;70.63;100051.66;5084379;27;45601;-79
2023/12/05 08:25:38;;;;;;;;;1.00;1.00;;;;;9.70;71.10;99989.72;5096951;27;45302;-80
2023/12/05 08:28:04;;;;;;;;;1.00;1.00;;;;;10.06;70.79;100051.50;5079743;27;45350;-80
2023/12/05 08:30:32;;;;;;;;;1.00;1.00;;;;;10.00;70.59;100050.28;5093929;27;45342;-83
2023/12/05 08:32:58;;;;;;;;;3.00;2.00;;;;;10.13;70.73;100059.66;5104659;27;45211;-82
2023/12/05 08:35:24;;;;;;;;;0.00;0.00;;;;;10.13;70.08;100078.25;5111463;27;44858;-81
2023/12/05 08:37:49;;;;;;;;;1.00;1.00;;;;;10.16;70.54;100062.81;5107975;27;44945;-79
2023/12/05 08:40:15;;;;;;;;;1.00;1.00;;;;;8.80;70.09;99856.47;5118608;27;45222;-83
2023/12/05 08:42:42;;;;;;;;;0.00;0.00;;;;;10.17;69.93;100083.09;5119329;27;45051;-82
2023/12/05 08:45:12;;;;;;;;;3.00;2.00;;;;;9.87;69.74;100027.81;5104301;27;45142;-82
2023/12/05 08:47:42;;;;;;;;;1.33;1.33;;;;;10.22;70.09;100095.94;5079299;27;44934;-83
2023/12/05 08:50:08;;;;;;;;;0.00;0.00;;;;;10.02;70.50;100042.19;5110931;27;45603;-78
2023/12/05 08:52:36;;;;;;;;;1.00;1.00;;;;;10.20;70.02;100074.78;5107220;27;45384;-81
2023/12/05 08:55:02;;;;;;;;;3.00;2.00;;;;;9.83;69.69;100021.16;5085224;27;45365;-83
2023/12/05 08:57:28;;;;;;;;;1.00;1.00;;;;;10.15;69.64;100068.28;5121535;27;45100;-83
2023/12/05 08:59:53;;;;;;;;;1.00;1.00;;;;;9.59;69.46;99998.75;5100236;27;45332;-78
2023/12/05 09:02:19;;;;;;;;;1.00;1.00;;;;;9.93;69.50;100049.25;5118039;27;45263;-81
2023/12/05 09:04:44;;;;;;;;;1.00;0.00;;;;;10.34;69.55;100111.44;5112818;27;44831;-81
2023/12/05 09:07:10;;;;;;;;;0.67;0.67;;;;;10.38;69.32;100111.94;5098964;27;45552;-82
2023/12/05 09:09:52;;;;;;;;;1.67;1.00;;;;;9.18;69.21;99931.31;5117108;27;45541;-81
2023/12/05 09:12:17;;;;;;;;;1.00;1.00;;;;;9.59;69.65;99980.19;5109301;27;44933;-80
2023/12/05 09:14:43;;;;;;;;;1.00;1.00;;;;;10.42;69.43;100123.13;5101794;28;45164;-81
2023/12/05 09:17:09;;;;;;;;;1.00;1.00;;;;;10.19;69.83;100085.56;5116929;27;45431;-81
2023/12/05 09:19:35;;;;;;;;;1.00;0.00;;;;;10.00;69.90;100066.22;5084255;28;44881;-82
2023/12/05 09:22:02;;;;;;;;;4.00;1.00;;;;;10.34;69.00;100105.28;5117665;27;46207;-81
2023/12/05 09:24:28;;;;;;;;;0.00;0.00;;;;;10.25;69.02;100095.63;5119089;27;44996;-80
2023/12/05 09:26:53;;;;;;;;;1.00;0.00;;;;;10.36;69.28;100120.09;5119616;27;45171;-84
2023/12/05 09:29:20;;;;;;;;;1.00;1.00;;;;;10.44;69.14;100137.91;5118286;27;45091;-81
2023/12/05 09:31:45;;;;;;;;;0.33;0.33;;;;;10.22;69.27;100102.09;5109087;27;45911;-84
2023/12/05 09:34:11;;;;;;;;;0.33;0.33;;;;;10.47;69.00;100142.91;5099996;27;44843;-84
2023/12/05 09:36:37;;;;;;;;;1.00;1.00;;;;;10.28;68.93;100106.75;5104057;27;45360;-83
2023/12/05 09:39:04;;;;;;;;;0.00;0.00;;;;;10.53;68.88;100157.38;5122695;27;44851;-85
2023/12/05 09:41:37;;;;;;;;;2.00;1.00;;;;;10.55;69.58;100158.06;5122808;27;45143;-84
2023/12/05 09:44:04;;;;;;;;;2.00;0.00;;;;;10.40;68.92;100131.22;5102054;27;44996;-83
2023/12/05 09:46:35;;;;;;;;;5.00;2.00;;;;;10.59;68.35;100172.69;5102187;27;44942;-82
2023/12/05 09:49:08;;;;;;;;;1.00;1.00;;;;;10.61;68.72;100171.56;5100349;27;45292;-83
2023/12/05 09:51:34;;;;;;;;;0.00;0.00;;;;;10.63;68.51;100169.59;5117326;27;45622;-82
2023/12/05 09:54:00;;;;;;;;;4.00;4.00;;;;;10.49;68.31;100143.59;5115334;27;44734;-84
2023/12/05 09:56:28;;;;;;;;;1.00;1.00;;;;;10.66;68.88;100179.91;5102311;27;44772;-84
2023/12/05 09:58:54;;;;;;;;;1.00;1.00;;;;;10.20;67.99;100097.88;5087962;28;45223;-88
2023/12/05 10:01:21;;;;;;;;;0.00;0.00;;;;;9.50;68.07;99999.69;5109098;27;45142;-84
2023/12/05 10:03:55;;;;;;;;;1.00;1.00;;;;;10.76;68.45;100192.22;5121108;27;45053;-86
2023/12/05 10:06:26;;;;;;;;;2.33;2.33;;;;;9.98;68.56;100072.66;5075814;28;44915;-86
2023/12/05 10:08:53;;;;;;;;;1.67;1.67;;;;;10.52;68.28;100139.78;5106376;28;44767;-82
2023/12/05 10:11:24;;;;;;;;;1.00;1.00;;;;;9.95;68.25;100065.03;5104444;28;45196;-84
2023/12/05 10:13:50;;;;;;;;;2.33;1.00;;;;;10.79;68.29;100200.72;5097881;27;44996;-81
2023/12/05 10:16:16;;;;;;;;;5.00;4.00;;;;;10.59;68.56;100168.19;5103662;27;45255;-83
2023/12/05 10:18:44;;;;;;;;;6.33;6.33;;;;;10.83;68.28;100206.56;5121246;27;44969;-85
2023/12/05 10:21:10;;;;;;;;;1.67;1.00;;;;;10.84;68.87;100213.56;5113775;27;45497;-85
2023/12/05 10:23:37;;;;;;;;;3.00;2.00;;;;;10.86;68.12;100217.72;5122441;27;45104;-82
2023/12/05 10:26:03;;;;;;;;;3.00;2.00;;;;;10.25;67.85;100119.53;5108463;27;45138;-83
2023/12/05 10:28:28;;;;;;;;;3.00;2.00;;;;;10.59;68.06;100189.47;5115785;27;44826;-81
2023/12/05 10:30:54;;;;;;;;;3.00;2.00;;;;;10.37;67.79;100158.13;5100376;27;45476;-81
2023/12/05 10:33:21;;;;;;;;;3.00;2.00;;;;;10.34;67.68;100134.53;5103729;27;45201;-83
2023/12/05 10:35:47;;;;;;;;;1.00;1.00;;;;;10.61;67.52;100195.50;5121222;27;45066;-85
2023/12/05 10:38:20;;;;;;;;;1.00;1.00;;;;;10.45;67.30;100166.16;5116143;27;45215;-83
2023/12/05 10:40:59;;;;;;;;;1.67;1.67;;;;;10.75;67.16;100203.84;5121045;27;45600;-85
2023/12/05 10:43:26;;;;;;;;;2.67;2.00;;;;;10.43;67.36;100151.38;5087301;27;45042;-85
2023/12/05 10:45:54;;;;;;;;;3.00;3.00;;;;;10.68;66.94;100200.16;5090796;27;45191;-83
2023/12/05 10:48:23;;;;;;;;;1.00;1.00;;;;;10.77;67.23;100217.81;5080483;28;45678;-83
2023/12/05 10:50:51;;;;;;;;;1.00;1.00;;;;;10.20;66.64;100146.50;5100448;27;45541;-83
2023/12/05 10:53:17;;;;;;;;;1.33;1.00;;;;;10.81;66.80;100229.78;5102200;27;45217;-82
2023/12/05 10:55:42;;;;;;;;;1.33;1.00;;;;;9.99;67.01;100107.03;5102446;27;44904;-85
2023/12/05 10:58:09;;;;;;;;;2.00;1.67;;;;;10.85;66.80;100241.81;5116042;27;44996;-82
2023/12/05 11:00:35;;;;;;;;;2.00;1.00;;;;;8.99;66.99;99960.66;5102280;27;45232;-84
2023/12/05 11:03:08;;;;;;;;;1.00;1.00;;;;;9.93;66.95;100110.31;5125521;27;45080;-82
2023/12/05 11:05:34;;;;;;;;;2.00;1.00;;;;;10.80;66.85;100249.41;5104364;27;45077;-81
2023/12/05 11:08:04;;;;;;;;;2.00;2.00;;;;;9.21;67.21;100000.00;5127245;27;44891;-79
2023/12/05 11:10:31;;;;;;;;;2.00;2.00;;;;;9.06;66.94;99969.69;5127712;27;45383;-83
2023/12/05 11:13:00;;;;;;;;;3.00;3.00;;;;;10.15;66.83;100143.50;5084146;27;45182;-79
2023/12/05 11:15:38;;;;;;;;;1.00;1.00;;;;;10.37;67.03;100166.09;5111521;27;45442;-81
2023/12/05 11:18:25;;;;;;;;;1.00;1.00;;;;;10.74;67.02;100221.63;5115193;27;44961;-80
2023/12/05 11:21:26;;;;;;;;;1.33;1.00;;;;;10.85;66.92;100252.44;5078156;27;46650;-79
2023/12/05 11:24:22;;;;;;;;;3.00;2.00;;;;;10.79;66.78;100247.75;5098163;27;45246;-78
2023/12/05 11:27:13;;;;;;;;;2.00;2.00;;;;;10.89;67.00;100256.44;5111121;27;45469;-83
2023/12/05 11:30:29;;;;;;;;;4.00;2.00;;;;;10.92;67.29;100259.63;5116696;27;45001;-79
2023/12/05 11:33:12;;;;;;;;;1.00;1.00;;;;;10.89;66.88;100267.09;5096366;27;46135;-77
2023/12/05 11:36:01;;;;;;;;;4.67;3.00;;;;;10.63;66.88;100212.13;5115990;27;45352;-83